Time;durP1;ratioP1;P1;durP2;ratioP2;P2;SDS_P1;SDS_P2;PMS_P1;PMS_P2;Temp;Humidity;BMP_temperature;BMP_pressure;BME280_temperature;BME280_humidity;BME280_pressure;Samples;Min_cycle;Max_cycle;Signal;HPM_P1;HPM_P2
2022/05/24 00:01:43;;;;;;;7.62;1.70;;;;;;;21.04;36.19;99098.47;4379264;32;33356;-93
2022/05/24 00:04:11;;;;;;;4.47;2.03;;;;;;;21.00;36.22;99092.63;4392439;32;34500;-93
2022/05/24 00:06:39;;;;;;;5.53;1.80;;;;;;;21.13;35.89;99085.53;4367226;32;32089;-93
2022/05/24 00:09:07;;;;;;;4.62;1.40;;;;;;;21.07;35.86;99085.87;4367738;32;32593;-92
2022/05/24 00:11:37;;;;;;;3.80;1.55;;;;;;;21.16;35.74;99084.97;4391489;32;34373;-92
2022/05/24 00:14:05;;;;;;;5.28;1.73;;;;;;;21.06;35.93;99079.47;4379409;32;34208;-92
2022/05/24 00:16:33;;;;;;;3.72;1.45;;;;;;;20.94;35.97;99079.00;4391766;32;32289;-92
2022/05/24 00:19:02;;;;;;;5.22;1.55;;;;;;;20.90;36.06;99069.56;4391605;32;34643;-91
2022/05/24 00:21:32;;;;;;;6.22;1.62;;;;;;;20.83;36.18;99074.62;4390750;32;35094;-93
2022/05/24 00:24:05;;;;;;;3.20;1.45;;;;;;;20.86;36.16;99072.09;4391277;32;32356;-92
2022/05/24 00:26:34;;;;;;;4.70;1.50;;;;;;;20.95;36.09;99069.50;4367437;32;31804;-91
2022/05/24 00:29:02;;;;;;;4.22;1.60;;;;;;;21.13;35.61;99062.38;4367129;32;32449;-92
2022/05/24 00:31:29;;;;;;;3.90;1.50;;;;;;;21.01;35.56;99060.81;4379554;32;34328;-93
2022/05/24 00:33:58;;;;;;;3.78;1.70;;;;;;;20.98;35.67;99063.34;4392144;32;33309;-94
2022/05/24 00:36:25;;;;;;;8.45;1.60;;;;;;;20.93;35.83;99052.25;4392057;32;33141;-93
2022/05/24 00:38:57;;;;;;;5.40;1.40;;;;;;;20.82;35.94;99056.22;4379793;32;32413;-93
2022/05/24 00:41:51;;;;;;;4.25;1.50;;;;;;;20.69;36.28;99055.81;4391526;32;34291;-92
2022/05/24 00:44:54;;;;;;;3.47;1.30;;;;;;;20.76;36.06;99058.25;4391393;32;33665;-94
2022/05/24 00:47:32;;;;;;;3.35;1.52;;;;;;;20.70;36.38;99051.88;4353918;32;33190;-91
2022/05/24 00:50:05;;;;;;;4.80;1.92;;;;;;;20.67;36.51;99052.47;4392225;32;34557;-91
2022/05/24 00:52:42;;;;;;;5.72;1.67;;;;;;;20.55;36.60;99057.56;4392116;32;33053;-93
2022/05/24 00:55:13;;;;;;;4.43;1.75;;;;;;;20.62;36.53;99058.09;4380548;32;31999;-92
2022/05/24 00:57:51;;;;;;;2.95;1.50;;;;;;;20.44;37.11;99060.72;4380613;32;31376;-92
2022/05/24 01:00:21;;;;;;;3.17;1.50;;;;;;;20.48;37.15;99073.78;4380451;32;33023;-92
2022/05/24 01:02:52;;;;;;;3.60;1.70;;;;;;;20.45;37.08;99071.59;4392700;32;33449;-93
2022/05/24 01:05:29;;;;;;;5.10;1.48;;;;;;;20.46;37.08;99069.63;4393701;32;32474;-93
2022/05/24 01:07:57;;;;;;;6.60;1.75;;;;;;;20.37;37.33;99050.69;4380440;32;34029;-92
2022/05/24 01:10:32;;;;;;;3.65;1.70;;;;;;;20.49;37.06;99055.94;4393306;32;34538;-92
2022/05/24 01:13:06;;;;;;;5.15;1.50;;;;;;;20.35;37.31;99060.47;4393028;32;34376;-92
2022/05/24 01:15:35;;;;;;;3.60;1.70;;;;;;;20.31;37.41;99065.78;4393477;32;32725;-91
2022/05/24 01:18:04;;;;;;;4.90;1.55;;;;;;;20.30;37.41;99069.69;4392121;32;31683;-92
2022/05/24 01:20:37;;;;;;;4.78;1.52;;;;;;;20.28;37.46;99066.34;4369399;32;31996;-92
2022/05/24 01:23:12;;;;;;;3.05;1.58;;;;;;;20.20;37.75;99077.25;4380779;32;34605;-93
2022/05/24 01:26:13;;;;;;;6.28;2.00;;;;;;;20.32;37.57;99081.38;4393367;32;33974;-91
2022/05/24 01:28:54;;;;;;;3.22;1.80;;;;;;;20.21;37.56;99079.75;4393458;32;34048;-92
2022/05/24 01:31:23;;;;;;;2.92;1.50;;;;;;;20.34;37.49;99089.44;4393114;32;32150;-92
2022/05/24 01:36:40;;;;;;;4.68;1.80;;;;;;;20.47;37.19;99101.97;4383056;32;33901;-91
2022/05/24 01:39:10;;;;;;;3.87;1.40;;;;;;;20.22;37.78;99125.19;4381387;32;33297;-91
2022/05/24 01:41:40;;;;;;;3.67;1.60;;;;;;;20.04;37.95;99140.59;4381096;32;34027;-92
2022/05/24 01:44:10;;;;;;;4.35;1.83;;;;;;;20.22;37.48;99158.62;4380907;32;32634;-92
2022/05/24 01:46:41;;;;;;;4.65;1.42;;;;;;;20.22;37.74;99148.31;4393345;32;33156;-91
2022/05/24 01:49:23;;;;;;;2.87;1.55;;;;;;;20.27;37.86;99139.94;4393417;32;33757;-91
2022/05/24 01:51:55;;;;;;;5.90;1.73;;;;;;;20.29;37.77;99148.00;4368187;32;32191;-93
2022/05/24 01:54:23;;;;;;;4.05;1.70;;;;;;;20.23;39.06;99121.28;4380964;32;34355;-92
2022/05/24 01:57:22;;;;;;;5.75;1.70;;;;;;;20.39;40.41;99083.88;4392978;32;33893;-94
2022/05/24 01:59:55;;;;;;;5.10;2.30;;;;;;;20.27;41.36;99039.59;4375399;32;32161;-94
2022/05/24 02:02:23;;;;;;;5.05;1.60;;;;;;;19.95;42.71;99069.91;4395692;32;32755;-93
2022/05/24 02:04:51;;;;;;;4.00;1.92;;;;;;;20.03;42.40;99067.34;4395705;32;33081;-92
2022/05/24 02:07:24;;;;;;;4.65;2.03;;;;;;;20.00;42.02;99070.69;4396966;32;32262;-93
2022/05/24 02:09:54;;;;;;;5.32;1.90;;;;;;;19.93;42.95;99089.69;4373741;32;31707;-93
2022/05/24 02:12:43;;;;;;;7.37;2.08;;;;;;;19.94;43.28;99099.69;4386160;32;33227;-94
2022/05/24 02:15:17;;;;;;;5.22;2.00;;;;;;;20.27;42.85;99111.22;4386725;32;34457;-93
2022/05/24 02:17:54;;;;;;;4.65;1.92;;;;;;;20.15;43.11;99131.06;4373742;32;33957;-95
2022/05/24 02:20:27;;;;;;;5.12;1.95;;;;;;;20.10;43.95;99133.06;4395601;32;31725;-94
2022/05/24 02:22:56;;;;;;;4.72;2.30;;;;;;;20.00;44.55;99129.19;4394957;32;34005;-94
2022/05/24 02:25:47;;;;;;;4.60;2.22;;;;;;;19.79;45.59;99138.72;4369168;32;33246;-93
2022/05/24 02:28:19;;;;;;;5.60;2.10;;;;;;;19.46;47.74;99150.47;4381075;32;33809;-93
2022/05/24 02:30:50;;;;;;;5.00;1.95;;;;;;;19.44;48.36;99149.94;4393262;32;34028;-93
2022/05/24 02:33:20;;;;;;;6.22;2.15;;;;;;;19.64;47.87;99159.09;4392855;32;32339;-93
2022/05/24 02:35:48;;;;;;;3.50;2.00;;;;;;;19.21;50.12;99166.06;4381168;32;34326;-93
2022/05/24 02:38:21;;;;;;;6.22;2.50;;;;;;;19.22;50.47;99161.34;4393147;32;32554;-93
2022/05/24 02:43:38;;;;;;;8.52;2.90;;;;;;;19.08;51.15;99174.97;4394740;32;32293;-94
2022/05/24 02:46:07;;;;;;;5.12;2.28;;;;;;;19.02;52.01;99184.41;4393281;32;32708;-96
2022/05/24 02:48:38;;;;;;;5.53;2.30;;;;;;;18.90;53.24;99172.72;4392855;32;34655;-96
2022/05/24 02:51:11;;;;;;;6.72;2.67;;;;;;;18.74;52.97;99181.06;4388917;32;33096;-96
2022/05/24 02:56:44;;;;;;;8.10;2.92;;;;;;;18.87;52.52;99193.56;4454950;27;20112;-96
2022/05/24 02:59:12;;;;;;;8.60;3.28;;;;;;;18.83;53.71;99186.06;4344349;32;32256;-96
2022/05/24 03:01:40;;;;;;;5.43;2.62;;;;;;;18.85;54.43;99189.41;4351102;32;32304;-94
2022/05/24 03:04:09;;;;;;;9.32;3.42;;;;;;;18.83;55.62;99186.91;4350494;32;32694;-93
2022/05/24 03:09:35;;;;;;;10.30;3.20;;;;;;;18.51;57.14;99181.50;4362083;32;31710;-92
2022/05/24 03:14:58;;;;;;;9.98;3.58;;;;;;;18.41;57.58;99160.09;4351870;32;32557;-90
2022/05/24 03:17:26;;;;;;;11.12;3.50;;;;;;;18.43;57.54;99163.44;4350108;32;34124;-91
2022/05/24 03:19:54;;;;;;;9.95;3.60;;;;;;;18.44;58.06;99144.81;4337989;32;32192;-90
2022/05/24 03:22:22;;;;;;;7.57;3.42;;;;;;;18.31;59.01;99145.31;4349810;32;32422;-90
2022/05/24 03:24:50;;;;;;;6.85;2.80;;;;;;;18.31;59.49;99153.66;4338055;32;33019;-91
2022/05/24 03:27:21;;;;;;;6.03;3.30;;;;;;;18.24;59.14;99153.06;4350386;32;34332;-90
2022/05/24 03:29:48;;;;;;;5.90;3.00;;;;;;;18.33;58.68;99166.16;4350118;32;33506;-90
2022/05/24 03:32:18;;;;;;;9.55;3.47;;;;;;;18.25;59.05;99176.97;4338456;32;31655;-90
2022/05/24 03:34:46;;;;;;;7.25;3.28;;;;;;;18.34;58.86;99192.00;4350403;32;33030;-91
2022/05/24 03:37:15;;;;;;;5.37;3.30;;;;;;;18.51;57.83;99212.09;4349927;32;32963;-90
2022/05/24 03:39:43;;;;;;;10.07;3.47;;;;;;;18.26;58.26;99217.53;4349875;32;33105;-91
2022/05/24 03:42:13;;;;;;;9.52;3.50;;;;;;;18.22;58.94;99233.91;4349813;32;33784;-90
2022/05/24 03:44:41;;;;;;;7.07;3.40;;;;;;;18.24;59.70;99228.06;4337838;32;32579;-91
2022/05/24 03:47:12;;;;;;;6.57;3.15;;;;;;;18.20;60.09;99216.66;4338178;32;33772;-90
2022/05/24 03:49:42;;;;;;;9.30;3.58;;;;;;;18.01;60.02;99216.31;4337611;32;34852;-91
2022/05/24 03:52:10;;;;;;;7.90;3.37;;;;;;;17.85;60.80;99191.50;4349629;32;32914;-91
2022/05/24 03:54:39;;;;;;;7.25;3.53;;;;;;;18.07;60.17;99193.03;4337166;32;33172;-91
2022/05/24 03:59:54;;;;;;;6.60;3.80;;;;;;;18.01;60.64;99205.19;4361511;32;32110;-92
2022/05/24 04:02:22;;;;;;;8.48;3.58;;;;;;;18.05;60.65;99209.13;4337187;32;33309;-92
2022/05/24 04:04:50;;;;;;;6.57;3.90;;;;;;;18.03;61.29;99200.22;4337251;32;33622;-92
2022/05/24 04:07:18;;;;;;;7.43;3.83;;;;;;;17.98;61.80;99202.13;4337371;32;33329;-92
2022/05/24 04:09:48;;;;;;;7.20;3.55;;;;;;;18.04;61.37;99207.44;4337378;32;32707;-91
2022/05/24 04:12:19;;;;;;;6.90;3.62;;;;;;;17.91;61.35;99220.97;4338493;32;31606;-92
2022/05/24 04:14:47;;;;;;;7.15;3.70;;;;;;;17.72;60.78;99220.56;4337300;32;32484;-91
2022/05/24 04:17:16;;;;;;;6.70;3.75;;;;;;;17.83;60.50;99213.97;4337573;32;32859;-91
2022/05/24 04:19:44;;;;;;;7.93;4.07;;;;;;;17.88;61.16;99219.56;4349322;32;33888;-91
2022/05/24 04:22:12;;;;;;;8.05;3.75;;;;;;;17.89;61.04;99215.69;4348970;32;31721;-91
2022/05/24 04:24:40;;;;;;;7.15;3.40;;;;;;;17.91;60.97;99219.03;4349784;32;32106;-78
2022/05/24 04:27:09;;;;;;;6.32;3.37;;;;;;;17.87;61.29;99229.00;4349875;32;33766;-95
2022/05/24 04:29:41;;;;;;;6.95;3.47;;;;;;;17.82;61.44;99236.44;4337607;32;32278;-94
2022/05/24 04:32:16;;;;;;;8.02;3.80;;;;;;;17.89;60.64;99231.50;4349054;32;32741;-94
2022/05/24 04:34:46;;;;;;;6.18;3.25;;;;;;;17.73;61.78;99234.16;4349822;32;33655;-92
2022/05/24 04:37:18;;;;;;;6.65;3.70;;;;;;;18.02;61.40;99233.81;4350972;32;34373;-96
2022/05/24 04:39:46;;;;;;;11.12;3.67;;;;;;;18.00;60.93;99227.69;4350083;32;33821;-96
2022/05/24 04:42:19;;;;;;;8.18;3.80;;;;;;;18.05;60.64;99225.78;4347558;33;31926;-96
2022/05/24 04:44:56;;;;;;;6.87;3.70;;;;;;;18.15;59.94;99229.72;4336432;33;32482;-96
2022/05/24 04:47:26;;;;;;;8.10;3.97;;;;;;;17.97;60.31;99233.78;4334694;33;34515;-92
2022/05/24 04:50:00;;;;;;;8.02;3.95;;;;;;;17.90;60.85;99245.13;4334922;33;33773;-90
2022/05/24 04:52:38;;;;;;;6.80;3.60;;;;;;;17.89;60.89;99242.59;4322548;33;31890;-89
2022/05/24 04:55:09;;;;;;;5.72;3.60;;;;;;;18.00;60.65;99233.25;4333994;33;32790;-93
2022/05/24 04:57:40;;;;;;;6.68;3.60;;;;;;;17.88;61.13;99241.78;4334026;33;34491;-88
2022/05/24 05:00:15;;;;;;;7.20;3.83;;;;;;;17.81;61.58;99243.94;4334122;33;32574;-88
2022/05/24 05:02:48;;;;;;;7.00;3.50;;;;;;;17.61;62.22;99233.50;4346302;33;34075;-87
2022/05/24 05:05:17;;;;;;;7.12;4.00;;;;;;;17.77;61.38;99223.37;4340227;32;33720;-88
2022/05/24 05:07:55;;;;;;;9.25;4.15;;;;;;;17.53;62.09;99228.47;4323773;33;33084;-94
2022/05/24 05:10:23;;;;;;;8.93;4.28;;;;;;;17.49;62.26;99232.03;4349088;32;33278;-92
2022/05/24 05:12:51;;;;;;;6.87;3.47;;;;;;;17.47;62.86;99232.28;4348041;32;32247;-91
2022/05/24 05:15:21;;;;;;;8.38;4.70;;;;;;;17.40;63.92;99243.62;4348606;32;33773;-90
2022/05/24 05:17:51;;;;;;;9.23;4.20;;;;;;;17.21;64.46;99234.00;4336440;32;34100;-89
2022/05/24 05:20:19;;;;;;;9.65;4.37;;;;;;;17.34;63.73;99236.34;4348795;32;34097;-90
2022/05/24 05:22:46;;;;;;;8.68;5.00;;;;;;;17.15;64.35;99248.09;4348548;32;33220;-88
2022/05/24 05:25:19;;;;;;;18.70;10.40;;;;;;;17.08;64.02;99246.37;4336927;32;32095;-86
2022/05/24 05:27:57;;;;;;;22.62;9.15;;;;;;;17.65;63.03;99236.56;4348582;32;33054;-85
2022/05/24 05:33:27;;;;;;;47.13;14.57;;;;;;;18.56;64.45;99241.84;4344490;33;34089;-83
2022/05/24 05:35:55;;;;;;;41.95;15.90;;;;;;;19.06;64.49;99257.84;4346087;33;34020;-82
2022/05/24 05:38:23;;;;;;;15.70;6.65;;;;;;;19.31;63.08;99249.53;4344050;33;32955;-82
2022/05/24 05:40:52;;;;;;;8.77;4.30;;;;;;;19.46;60.13;99250.69;4334943;33;34135;-85
2022/05/24 05:43:22;;;;;;;6.47;3.83;;;;;;;19.35;57.61;99247.88;4347250;33;32547;-84
2022/05/24 05:45:54;;;;;;;6.35;4.00;;;;;;;19.42;56.99;99254.00;4335217;33;33757;-95
2022/05/24 05:48:22;;;;;;;7.07;3.80;;;;;;;19.13;57.01;99247.28;4335708;33;34373;-93
2022/05/24 05:50:50;;;;;;;7.53;3.92;;;;;;;19.11;57.12;99255.06;4336447;33;33743;-93
2022/05/24 05:53:19;;;;;;;11.27;4.45;;;;;;;18.93;57.93;99248.09;4336295;33;33539;-94
2022/05/24 05:55:48;;;;;;;7.65;4.03;;;;;;;18.58;58.96;99245.19;4324215;33;32256;-92
2022/05/24 05:58:16;;;;;;;7.87;4.07;;;;;;;18.46;59.57;99248.19;4349019;33;35168;-95
2022/05/24 06:00:44;;;;;;;7.25;3.85;;;;;;;18.21;60.33;99240.56;4336130;33;33772;-94
2022/05/24 06:03:12;;;;;;;6.82;4.07;;;;;;;18.13;60.86;99251.38;4334629;33;33913;-93
2022/05/24 06:05:43;;;;;;;8.38;4.22;;;;;;;18.14;60.80;99251.09;4334451;32;32145;-94
2022/05/24 06:08:13;;;;;;;7.75;4.50;;;;;;;18.20;60.33;99254.75;4334879;33;35356;-93
2022/05/24 06:10:48;;;;;;;6.97;4.47;;;;;;;17.74;62.11;99252.50;4336208;32;32496;-92
2022/05/24 06:13:15;;;;;;;8.43;4.18;;;;;;;17.62;62.89;99259.31;4338128;33;33411;-93
2022/05/24 06:15:46;;;;;;;8.27;4.47;;;;;;;17.73;62.63;99250.81;4341079;33;32416;-94
2022/05/24 06:18:14;;;;;;;8.50;4.43;;;;;;;17.81;62.34;99252.28;4340300;33;33785;-94
2022/05/24 06:20:44;;;;;;;9.07;4.68;;;;;;;17.28;64.20;99248.50;4357110;32;34924;-93
2022/05/24 06:23:13;;;;;;;8.43;4.55;;;;;;;17.35;64.26;99251.88;4370037;32;33707;-95
2022/05/24 06:25:42;;;;;;;8.25;4.75;;;;;;;17.40;64.25;99245.56;4379060;32;33925;-91
2022/05/24 06:28:16;;;;;;;5.80;4.03;;;;;;;17.30;64.53;99245.47;4354150;32;33314;-94
2022/05/24 06:30:44;;;;;;;7.85;4.90;;;;;;;16.69;66.73;99247.63;4366413;32;33729;-95
2022/05/24 06:33:16;;;;;;;8.00;5.35;;;;;;;16.68;67.07;99248.72;4353840;32;31625;-95
2022/05/24 06:35:45;;;;;;;6.80;5.03;;;;;;;16.82;66.44;99244.44;4353647;32;32150;-95
2022/05/24 06:38:13;;;;;;;9.63;5.05;;;;;;;16.97;66.14;99252.06;4365152;32;34242;-96
2022/05/24 06:40:40;;;;;;;10.68;5.68;;;;;;;16.67;67.12;99258.97;4365464;32;34756;-94
2022/05/24 06:43:11;;;;;;;8.38;5.25;;;;;;;16.71;67.03;99267.59;4353462;32;31850;-95
2022/05/24 06:45:39;;;;;;;9.73;5.60;;;;;;;16.73;67.24;99269.00;4365925;32;33263;-96
2022/05/24 06:48:11;;;;;;;9.88;5.35;;;;;;;17.11;65.32;99267.19;4352829;32;34143;-93
2022/05/24 06:50:41;;;;;;;11.25;5.40;;;;;;;16.72;66.95;99272.88;4350537;32;32723;-94
2022/05/24 06:53:09;;;;;;;9.00;6.15;;;;;;;16.77;66.72;99275.72;4349862;32;33269;-95
2022/05/24 06:55:37;;;;;;;8.60;5.72;;;;;;;16.57;68.01;99280.12;4338111;32;31745;-96
2022/05/24 06:58:05;;;;;;;9.25;5.55;;;;;;;16.81;66.99;99283.50;4338099;32;33133;-96
2022/05/24 07:03:30;;;;;;;8.80;5.18;;;;;;;16.87;66.92;99282.47;4352258;32;31787;-96
2022/05/24 07:05:58;;;;;;;9.05;5.53;;;;;;;16.86;67.01;99287.19;4350119;32;33202;-94
2022/05/24 07:08:27;;;;;;;9.20;6.30;;;;;;;16.57;67.74;99280.97;4338213;32;32891;-93
2022/05/24 07:10:55;;;;;;;7.93;5.45;;;;;;;16.77;67.39;99281.25;4351148;32;34550;-95
2022/05/24 07:13:24;;;;;;;7.60;5.12;;;;;;;16.78;67.12;99284.87;4351257;32;31729;-95
2022/05/24 07:15:52;;;;;;;7.45;5.45;;;;;;;16.91;67.02;99278.06;4338679;32;32052;-94
2022/05/24 07:18:20;;;;;;;10.45;6.15;;;;;;;16.86;67.39;99275.25;4338288;32;34020;-95
2022/05/24 07:20:48;;;;;;;10.90;6.30;;;;;;;17.00;67.05;99280.09;4351053;32;34081;-96
2022/05/24 07:23:20;;;;;;;14.50;6.22;;;;;;;17.03;67.29;99274.03;4338875;32;31934;-95
2022/05/24 07:25:48;;;;;;;9.95;6.78;;;;;;;17.09;67.13;99274.94;4351153;32;34861;-95
2022/05/24 07:28:22;;;;;;;9.35;6.20;;;;;;;17.20;66.34;99275.88;4350882;32;34373;-95
2022/05/24 07:30:50;;;;;;;10.18;6.30;;;;;;;17.17;66.84;99273.62;4350074;32;34328;-93
2022/05/24 07:33:18;;;;;;;9.95;6.80;;;;;;;17.12;67.55;99278.00;4350005;32;33381;-94
2022/05/24 07:35:46;;;;;;;9.20;6.40;;;;;;;17.12;67.69;99282.72;4350620;32;33803;-94
2022/05/24 07:38:14;;;;;;;8.90;6.35;;;;;;;17.20;67.64;99282.25;4338415;32;32866;-96
2022/05/24 07:46:35;;;;;;;8.48;4.90;;;;;;;17.59;65.68;99273.72;4339844;32;32989;-95
2022/05/24 07:49:05;;;;;;;11.32;5.75;;;;;;;17.12;67.24;99278.00;4349092;32;34807;-94
2022/05/24 07:51:32;;;;;;;8.85;5.95;;;;;;;17.17;67.66;99274.44;4337203;32;33242;-95
2022/05/24 07:54:03;;;;;;;9.23;6.60;;;;;;;17.13;67.34;99273.31;4349626;32;34156;-92
2022/05/24 07:56:31;;;;;;;10.15;6.40;;;;;;;17.17;67.15;99281.94;4348585;32;33676;-94
2022/05/24 07:58:59;;;;;;;9.93;6.30;;;;;;;17.11;68.28;99275.50;4349579;32;34343;-96
2022/05/24 08:01:27;;;;;;;11.05;7.00;;;;;;;17.01;68.41;99279.00;4349604;32;34024;-94
2022/05/24 08:03:58;;;;;;;8.32;6.60;;;;;;;17.27;67.65;99291.19;4349653;32;32093;-94
2022/05/24 08:06:25;;;;;;;9.40;6.50;;;;;;;17.29;67.71;99297.31;4345488;33;33059;-95
2022/05/24 08:08:53;;;;;;;9.60;6.00;;;;;;;17.31;67.90;99302.59;4346114;33;32981;-93
2022/05/24 08:11:21;;;;;;;9.50;6.60;;;;;;;17.30;68.14;99300.94;4346449;33;34037;-94
2022/05/24 08:13:50;;;;;;;9.68;6.45;;;;;;;17.28;68.28;99295.66;4345861;33;33045;-93
2022/05/24 08:16:17;;;;;;;10.48;7.12;;;;;;;17.32;67.88;99298.72;4347024;33;33724;-95
2022/05/24 08:18:45;;;;;;;12.80;7.90;;;;;;;17.44;67.55;99291.09;4335004;33;33889;-95
2022/05/24 08:21:13;;;;;;;10.48;6.68;;;;;;;17.45;67.70;99284.44;4346988;32;33473;-93
2022/05/24 08:23:41;;;;;;;9.32;6.28;;;;;;;17.63;66.91;99277.63;4359207;32;33360;-93
2022/05/24 08:26:09;;;;;;;10.25;6.32;;;;;;;17.48;67.72;99274.75;4322770;33;32383;-93
2022/05/24 08:28:37;;;;;;;9.73;6.62;;;;;;;17.69;67.21;99279.38;4322783;33;33893;-94
2022/05/24 08:31:10;;;;;;;10.35;7.60;;;;;;;17.78;67.45;99277.78;4323229;33;33338;-92
2022/05/24 08:33:38;;;;;;;13.50;7.43;;;;;;;17.82;67.10;99284.47;4335062;33;33462;-92
2022/05/24 08:36:07;;;;;;;11.45;7.82;;;;;;;17.95;66.69;99281.25;4334635;33;34658;-93
2022/05/24 08:38:35;;;;;;;14.70;8.68;;;;;;;18.02;66.46;99278.25;4334356;33;32928;-93
2022/05/24 08:41:06;;;;;;;13.85;8.65;;;;;;;18.09;66.38;99276.91;4334627;33;34522;-92
2022/05/24 08:48:22;;;;;;;11.88;6.50;;;;;;;17.85;66.83;99288.66;4334258;33;31496;-93
2022/05/24 08:49:57;;;;;;;9.90;5.50;;;;;;;18.00;65.73;99275.72;4337123;33;34069;-92
2022/05/24 08:52:32;;;;;;;10.23;6.43;;;;;;;18.26;65.70;99275.84;4334597;33;33917;-93
2022/05/24 08:55:00;;;;;;;13.07;6.37;;;;;;;18.23;65.37;99274.44;4333999;33;32710;-92
2022/05/24 08:57:48;;;;;;;10.10;6.55;;;;;;;18.52;65.63;99279.63;4332798;33;33663;-91
2022/05/24 09:00:21;;;;;;;8.88;5.75;;;;;;;18.65;65.58;99279.16;4332416;33;34190;-93
2022/05/24 09:02:50;;;;;;;7.90;5.78;;;;;;;18.82;65.14;99278.94;4332790;33;34283;-89
2022/05/24 09:05:25;;;;;;;7.70;5.47;;;;;;;18.58;64.71;99273.81;4332487;33;32644;-88
2022/05/24 09:08:06;;;;;;;9.73;5.03;;;;;;;18.74;63.89;99281.12;4333803;33;33078;-87
2022/05/24 09:10:46;;;;;;;8.80;4.65;;;;;;;18.61;63.65;99273.28;4348939;33;34338;-86
2022/05/24 09:13:33;;;;;;;7.30;5.25;;;;;;;18.38;64.20;99284.81;4337134;33;33934;-89
2022/05/24 09:16:13;;;;;;;7.78;5.35;;;;;;;18.71;63.83;99283.63;4336263;33;33321;-88
2022/05/24 09:19:05;;;;;;;11.05;5.47;;;;;;;18.75;63.33;99284.75;4336328;33;33160;-89
2022/05/24 09:21:36;;;;;;;9.07;5.47;;;;;;;19.05;62.27;99286.78;4348815;33;34573;-88
2022/05/24 09:24:20;;;;;;;10.18;5.87;;;;;;;19.16;62.21;99282.91;4324852;33;32565;-87
2022/05/24 09:27:04;;;;;;;8.80;5.07;;;;;;;19.19;62.68;99282.34;4336359;33;32769;-88
2022/05/24 09:29:35;;;;;;;9.52;5.50;;;;;;;19.35;63.26;99278.50;4336756;33;33008;-89
2022/05/24 09:32:11;;;;;;;9.00;5.30;;;;;;;19.97;60.92;99274.63;4336312;33;34054;-88
2022/05/24 09:34:40;;;;;;;7.00;4.47;;;;;;;19.62;61.49;99277.41;4336505;33;34104;-88
2022/05/24 09:37:27;;;;;;;8.43;4.80;;;;;;;20.07;59.54;99287.69;4336109;33;33133;-89
2022/05/24 09:40:02;;;;;;;7.45;4.00;;;;;;;20.20;58.52;99283.47;4336322;33;33071;-88
2022/05/24 09:42:33;;;;;;;8.23;3.47;;;;;;;20.50;55.99;99283.41;4343873;32;35172;-87
2022/05/24 09:45:17;;;;;;;5.22;3.37;;;;;;;20.61;57.70;99290.63;4366007;32;34753;-86
2022/05/24 09:47:44;;;;;;;6.95;3.80;;;;;;;20.70;56.21;99288.09;4365617;32;33547;-87
2022/05/24 09:50:20;;;;;;;5.50;3.30;;;;;;;20.95;54.41;99293.53;4378263;32;33652;-87
2022/05/24 09:53:09;;;;;;;6.07;3.62;;;;;;;20.97;54.61;99293.25;4365681;32;32954;-87
2022/05/24 09:55:55;;;;;;;6.97;4.12;;;;;;;21.32;54.00;99289.44;4377804;32;33735;-90
2022/05/24 09:58:35;;;;;;;6.72;3.67;;;;;;;21.42;53.50;99280.19;4366064;32;33405;-87
2022/05/24 10:01:13;;;;;;;7.78;3.83;;;;;;;21.56;54.99;99282.00;4378218;32;33790;-88
2022/05/24 10:03:44;;;;;;;6.65;3.92;;;;;;;21.75;52.76;99292.47;4365588;32;34668;-88
2022/05/24 10:06:30;;;;;;;7.20;3.70;;;;;;;21.57;52.53;99297.63;4365476;32;33932;-87
2022/05/24 10:09:20;;;;;;;8.25;4.12;;;;;;;21.74;52.33;99291.63;4353731;32;32076;-89
2022/05/24 10:11:57;;;;;;;7.75;4.65;;;;;;;22.26;48.95;99284.47;4365609;32;34006;-88
2022/05/24 10:14:40;;;;;;;6.37;3.92;;;;;;;22.08;52.29;99288.84;4365817;32;35044;-88
2022/05/24 10:17:24;;;;;;;6.07;3.75;;;;;;;22.40;50.96;99281.78;4353258;32;33536;-90
2022/05/24 10:19:59;;;;;;;8.15;3.30;;;;;;;22.54;50.50;99285.56;4372873;32;33949;-95
2022/05/24 10:22:41;;;;;;;8.63;3.58;;;;;;;22.71;49.47;99276.69;4364725;32;33714;-95
2022/05/24 10:25:24;;;;;;;11.90;7.97;;;;;;;22.82;48.04;99273.47;4365562;32;32756;-95
2022/05/24 10:28:22;;;;;;;8.63;6.00;;;;;;;22.89;49.72;99267.50;4354246;32;34211;-93
2022/05/24 10:31:07;;;;;;;6.50;3.85;;;;;;;22.91;48.23;99263.28;4365888;32;34257;-94
2022/05/24 10:39:56;;;;;;;5.85;3.75;;;;;;;23.46;48.53;99252.38;4364083;32;32300;-92
2022/05/24 10:42:43;;;;;;;6.28;3.65;;;;;;;23.49;46.58;99259.31;4352512;32;32721;-88
2022/05/24 10:45:21;;;;;;;5.78;3.67;;;;;;;23.89;47.66;99264.28;4359919;32;33256;-92
2022/05/24 10:48:03;;;;;;;7.45;5.00;;;;;;;24.02;45.93;99259.03;4365439;32;34572;-95
2022/05/24 10:50:39;;;;;;;12.15;6.43;;;;;;;23.98;45.79;99256.00;4354964;32;32333;-91
2022/05/24 10:53:14;;;;;;;7.20;4.35;;;;;;;23.93;45.57;99254.13;4365201;32;33232;-90
2022/05/24 10:56:02;;;;;;;8.43;3.87;;;;;;;24.19;44.43;99267.66;4352720;32;33187;-90
2022/05/24 10:58:36;;;;;;;6.45;3.58;;;;;;;24.25;45.56;99261.69;4365084;32;32818;-90
2022/05/24 11:01:17;;;;;;;6.87;3.47;;;;;;;24.62;45.00;99266.28;4365285;32;34138;-90
2022/05/24 11:03:50;;;;;;;7.90;3.75;;;;;;;24.67;43.23;99250.50;4365337;32;34136;-90
2022/05/24 11:06:30;;;;;;;5.72;3.55;;;;;;;24.65;44.96;99255.59;4376086;32;33679;-90
2022/05/24 11:09:04;;;;;;;9.20;4.18;;;;;;;24.63;45.05;99234.28;4365293;32;34348;-89
2022/05/24 11:11:53;;;;;;;7.43;3.47;;;;;;;24.72;43.73;99227.91;4365007;32;33957;-89
2022/05/24 11:14:40;;;;;;;7.20;3.95;;;;;;;24.50;44.68;99237.09;4365241;32;32886;-90
2022/05/24 11:17:10;;;;;;;5.32;3.55;;;;;;;24.91;42.95;99237.03;4365036;32;32410;-90
2022/05/24 11:19:44;;;;;;;7.40;3.70;;;;;;;24.71;43.63;99234.66;4365093;32;34368;-90
2022/05/24 11:22:18;;;;;;;5.47;3.67;;;;;;;25.10;42.97;99237.75;4352890;32;32355;-92
2022/05/24 11:25:01;;;;;;;6.50;3.62;;;;;;;24.82;43.45;99241.72;4377474;32;33818;-90
2022/05/24 11:27:35;;;;;;;6.25;3.72;;;;;;;24.81;43.17;99245.66;4352398;32;33205;-90
2022/05/24 11:30:17;;;;;;;5.15;3.17;;;;;;;24.86;43.59;99239.94;4365877;32;34649;-90
2022/05/24 11:32:48;;;;;;;5.82;2.80;;;;;;;24.94;43.09;99236.41;4351721;32;32672;-90
2022/05/24 11:35:19;;;;;;;5.60;2.72;;;;;;;24.97;41.84;99233.00;4365419;32;33228;-90
2022/05/24 11:37:56;;;;;;;5.10;3.03;;;;;;;25.04;42.12;99233.41;4364930;32;32337;-89
2022/05/24 11:40:28;;;;;;;5.53;2.92;;;;;;;24.80;41.51;99221.56;4365339;32;34179;-92
2022/05/24 11:43:08;;;;;;;4.70;2.62;;;;;;;25.00;42.61;99226.75;4364999;32;32444;-91
2022/05/24 11:45:37;;;;;;;8.20;3.20;;;;;;;25.27;41.23;99220.25;4377236;32;33204;-91
2022/05/24 11:48:05;;;;;;;4.55;2.55;;;;;;;25.42;41.56;99225.47;4364887;32;31676;-91
2022/05/24 11:51:31;;;;;;;3.87;2.53;;;;;;;25.33;40.73;99235.81;4377151;32;34441;-90
2022/05/24 11:54:02;;;;;;;4.62;2.30;;;;;;;25.63;40.75;99234.22;4355065;32;34563;-91
2022/05/24 11:56:30;;;;;;;4.28;2.50;;;;;;;25.80;40.06;99237.19;4364672;32;33353;-91
2022/05/24 11:59:04;;;;;;;8.55;5.35;;;;;;;25.83;38.51;99230.09;4364933;32;34521;-91
2022/05/24 12:01:36;;;;;;;4.97;2.78;;;;;;;25.59;40.10;99221.97;4366186;32;34342;-91
2022/05/24 12:10:11;;;;;;;3.67;2.35;;;;;;;25.85;39.83;99206.13;4377552;32;32940;-91
2022/05/24 12:12:55;;;;;;;5.75;2.47;;;;;;;25.73;39.92;99213.50;4366116;32;34074;-91
2022/05/24 12:15:30;;;;;;;5.87;3.00;;;;;;;26.06;39.77;99205.56;4377965;32;33869;-92
2022/05/24 12:17:58;;;;;;;4.73;2.93;;;;;;;25.92;39.45;99203.69;4377911;32;33331;-91
2022/05/24 12:20:35;;;;;;;4.37;2.55;;;;;;;26.17;38.50;99206.94;4365152;32;32132;-90
2022/05/24 12:23:07;;;;;;;4.72;2.80;;;;;;;26.15;39.39;99212.06;4377398;32;34833;-89
2022/05/24 12:26:04;;;;;;;4.97;2.67;;;;;;;26.31;39.14;99204.88;4365416;32;32232;-91
2022/05/24 12:28:38;;;;;;;4.05;2.40;;;;;;;26.08;38.54;99208.87;4352075;32;31129;-91
2022/05/24 12:31:18;;;;;;;5.37;2.75;;;;;;;26.31;38.25;99204.03;4376677;32;33725;-91
2022/05/24 12:33:57;;;;;;;14.05;10.98;;;;;;;26.22;38.50;99195.56;4376782;32;35441;-90
2022/05/24 12:36:40;;;;;;;5.55;2.78;;;;;;;26.28;38.68;99194.25;4376522;32;33974;-90
2022/05/24 12:39:35;;;;;;;4.15;2.45;;;;;;;26.29;39.75;99195.09;4376449;32;31645;-90
2022/05/24 12:42:09;;;;;;;4.77;2.90;;;;;;;26.46;38.85;99201.66;4376494;32;33753;-88
2022/05/24 12:44:48;;;;;;;6.47;2.45;;;;;;;26.47;38.93;99203.31;4366019;32;34646;-91